Capitol Logistics 957

Operating for DHL



LPPT
Aeroporto da Portela de Sacavem
Lisbon, PT
EDDK
Cologne Bonn Airport
Cologne, DE

Route Details

Aircraft Information
Group: European Fleet
Types: A30F,A31F,B738
Route Data
Demand: L
Distance: 1000nm
Duration: 2h 54m
Recm'd Route: IXID4N IXIDA TOSDI UN745 ZMR UN873 DELOG PEXOD USODA GONEK TABOV UN858 VALEK UM163 DIK N853 ARCKY T853 IBESA T860 ERUKI T856 DEPOK DEPO1C
Origin Wx: LPPT 272230Z 31004KT 270V360 CAVOK 24/08 Q1014
Dest. Wx: EDDK 272220Z AUTO 31005KT 280V340 CAVOK 10/04 Q1023 NOSIG
Notes:

Financial History
Total Freight: 87,231lbs
Average Load: 43,616lbs/flt
Fuel Used: 53,747lbs
Avg. Fuel Used: 26,874lbs/flt
Fuel Expense: $17,982
Avg. Fuel Expense: $8,991
Avg. Fuel Cost: $0.34/lbs
Total Gross Income: $178,038
Pilot Pay: $518
Total Expenses: $26,599
Total Revenue: $132,200
Average Revenue: $89,019.23